ěÝzenÝ letovÚho provozu ╚eskÚ republiky
Letiste: LKPD Aktualizace: 28.03.2023 16:59:38  UTC
 METAR LKPD 28.03. 17:00 ...
METAR LKPD 281700Z 32009KT 290V360 CAVOK 05/M09 Q1023 RMK BLACK=